Fort Lauderdale Hollywood International Airport
KFLL : now visible

Airfield :











YOU CAN JOIN US ON...

 
LOGIN :

Register | Disclaimer

   EN    FR    IT 

 









Legend :    VFR   Marginal VFR   IFR   Intensive IFR   Very Intensive IFR
Visi :
Ceiling :
>= 8 km
>= 3000ft
5 to 8 km
1000 to 3000 ft
1500m to 5 km
500 to 1000 ft
800 to 1500m
200 to 500 ft
< 800m
< 200 ft
Symbols :   Thunderstorms  Fog  Heavy snow  Heavy precipitations  Wind > 20 kt






- Airport Elevation : 9 ft
- IATA code : FLL


KFLL - Fort Lauderdale Hollywood International

CURRENT METAR :
  • 192253Z 35005KT 10SM FEW055 23/15 A2994 RMK AO2 SLP139 T02280150 $

EXPIRED METARs :
  • 192153Z 33006KT 10SM FEW060 FEW075 25/14 A2992 RMK AO2 SLP132 T02500144 $
  • 192053Z 31008KT 10SM SCT060 26/13 A2990 RMK AO2 SLP126 T02610128 55000
  • 191953Z 28012G19KT 10SM FEW043 SCT060 27/13 A2989 RMK AO2 SLP120 T02670128

TAF KFLL
Valid from the 19 at 21:00 until the 21 at 00:00 UTC


192056Z 1921/2024 28010G20KT P6SM FEW025 SCT060
FM200200 VRB04KT P6SM FEW030
FM201400 34007KT P6SM SKC



MET'MAP, your aeronautical weather chart ! - Copyright ORBIFLY December 2007 - Disclaimer

ORBIFLY MET'MAP TEAM :

Programming & Development : Alexandra Zaïnal
Concept & Development : Baudouin d'Aumeries
Co-Development & Prog : Marc-Olivier Méhu
Technical & hardware support : Manuel Goepfert

Contact : metmap@orbifly.com




SOURCES & CREDITS :

   NOAA       Earth
Advisory